Time;durP1;ratioP1;P1;durP2;ratioP2;P2;SDS_P1;SDS_P2;PMS_P1;PMS_P2;Temp;Humidity;BMP_temperature;BMP_pressure;BME280_temperature;BME280_humidity;BME280_pressure;Samples;Min_cycle;Max_cycle;Signal;HPM_P1;HPM_P2
2024/03/21 00:02:13;;;;;;;9.98;6.80;;;;;;;6.95;43.99;95408.09;5083571;28;20024;-77
2024/03/21 00:04:39;;;;;;;12.02;6.88;;;;;;;6.96;43.95;95400.66;5083818;28;20406;-77
2024/03/21 00:07:04;;;;;;;14.88;7.75;;;;;;;6.95;44.07;95408.09;5083153;28;20528;-76
2024/03/21 00:09:30;;;;;;;10.77;7.28;;;;;;;6.88;44.40;95398.00;5067281;28;20073;-76
2024/03/21 00:11:56;;;;;;;10.93;6.60;;;;;;;6.77;44.75;95386.34;5083066;28;20221;-76
2024/03/21 00:14:21;;;;;;;17.13;6.82;;;;;;;6.73;45.00;95390.28;5085210;28;20477;-76
2024/03/21 00:16:48;;;;;;;9.27;6.90;;;;;;;6.78;45.22;95393.38;5083417;28;20055;-76
2024/03/21 00:19:14;;;;;;;9.10;6.53;;;;;;;6.81;45.15;95389.03;5085269;28;20028;-77
2024/03/21 00:21:39;;;;;;;9.55;6.32;;;;;;;6.82;45.04;95390.59;5083567;28;20020;-76
2024/03/21 00:24:05;;;;;;;11.02;6.70;;;;;;;6.78;45.21;95385.19;5084622;28;20034;-77
2024/03/21 00:26:30;;;;;;;12.75;7.05;;;;;;;6.75;45.52;95379.72;5085649;28;20107;-76
2024/03/21 00:28:56;;;;;;;13.00;7.15;;;;;;;6.65;45.68;95384.06;5084375;28;20028;-76
2024/03/21 00:31:21;;;;;;;15.38;8.07;;;;;;;6.60;45.96;95379.84;5085570;28;20486;-77
2024/03/21 00:33:50;;;;;;;14.63;7.22;;;;;;;6.58;45.95;95379.44;5083346;28;20024;-77
2024/03/21 00:36:19;;;;;;;15.88;7.90;;;;;;;6.53;46.04;95368.94;5085243;28;20103;-77
2024/03/21 00:38:44;;;;;;;14.05;7.88;;;;;;;6.51;46.08;95370.53;5083369;28;20383;-77
2024/03/21 00:41:10;;;;;;;15.80;8.80;;;;;;;6.51;46.00;95376.75;5066300;28;20059;-78
2024/03/21 00:43:35;;;;;;;18.50;9.10;;;;;;;6.46;46.11;95370.94;5083977;28;20084;-76
2024/03/21 00:46:01;;;;;;;18.40;8.98;;;;;;;6.41;46.28;95369.41;5085197;28;20020;-77
2024/03/21 00:48:26;;;;;;;15.52;7.72;;;;;;;6.39;46.19;95367.06;5084117;28;20029;-76
2024/03/21 00:50:52;;;;;;;15.80;7.93;;;;;;;6.35;46.28;95363.56;5082736;28;20031;-76
2024/03/21 00:53:17;;;;;;;11.18;7.53;;;;;;;6.32;46.45;95367.13;5067172;28;20016;-76
2024/03/21 00:55:42;;;;;;;14.40;7.88;;;;;;;6.12;46.43;95349.66;5084159;28;20464;-76
2024/03/21 00:58:08;;;;;;;11.93;7.80;;;;;;;6.24;46.73;95357.41;5083177;28;20024;-76
2024/03/21 01:00:35;;;;;;;12.93;7.65;;;;;;;6.29;46.45;95365.19;5083037;28;20024;-75
2024/03/21 01:03:02;;;;;;;12.07;6.03;;;;;;;6.33;45.81;95365.94;5084244;28;20035;-78
2024/03/21 01:05:27;;;;;;;9.80;6.32;;;;;;;6.23;45.91;95358.56;5083881;28;20028;-77
2024/03/21 01:07:53;;;;;;;9.38;5.85;;;;;;;6.27;45.65;95358.56;5082377;28;20097;-76
2024/03/21 01:10:18;;;;;;;9.25;5.55;;;;;;;6.25;45.55;95360.91;5084757;28;20051;-76
2024/03/21 01:12:44;;;;;;;8.55;6.22;;;;;;;6.26;45.37;95355.06;5082482;28;20020;-77
2024/03/21 01:15:10;;;;;;;11.30;5.80;;;;;;;6.13;45.34;95338.34;5084491;28;20095;-77
2024/03/21 01:17:36;;;;;;;8.15;5.70;;;;;;;6.24;45.44;95359.34;5082569;28;20483;-77
2024/03/21 01:20:03;;;;;;;9.43;6.07;;;;;;;6.25;45.38;95358.16;5082755;28;20044;-76
2024/03/21 01:22:29;;;;;;;11.98;5.82;;;;;;;6.33;45.05;95360.47;5083317;28;20035;-77
2024/03/21 01:24:54;;;;;;;8.05;5.78;;;;;;;6.27;45.17;95347.66;5083638;28;20012;-77
2024/03/21 01:27:19;;;;;;;12.90;5.82;;;;;;;6.24;45.27;95362.09;5086864;28;20404;-75
2024/03/21 01:29:45;;;;;;;7.63;5.15;;;;;;;6.17;45.04;95357.44;5086060;28;20043;-78
2024/03/21 01:32:10;;;;;;;9.80;5.13;;;;;;;6.21;44.96;95350.03;5089061;28;20024;-77
2024/03/21 01:34:36;;;;;;;9.10;5.57;;;;;;;6.13;45.31;95352.00;5087795;28;20035;-76
2024/03/21 01:37:02;;;;;;;8.05;5.32;;;;;;;6.10;45.37;95350.06;5086728;28;20039;-76
2024/03/21 01:39:28;;;;;;;8.73;5.50;;;;;;;6.10;45.29;95361.00;5088127;28;20028;-76
2024/03/21 01:41:53;;;;;;;7.68;5.10;;;;;;;6.11;45.47;95348.88;5086428;28;20020;-76
2024/03/21 01:44:22;;;;;;;10.18;5.45;;;;;;;6.10;45.37;95358.25;5087376;28;20048;-76
2024/03/21 01:46:47;;;;;;;9.70;5.95;;;;;;;6.01;45.74;95354.41;5085880;28;20051;-78
2024/03/21 01:49:14;;;;;;;9.13;5.88;;;;;;;6.03;45.75;95346.59;5087206;28;20405;-75
2024/03/21 01:51:41;;;;;;;8.93;5.75;;;;;;;6.07;45.60;95352.81;5087236;28;20118;-77
2024/03/21 01:54:08;;;;;;;13.77;5.68;;;;;;;6.03;45.76;95349.34;5086516;28;20020;-75
2024/03/21 01:56:37;;;;;;;10.70;6.05;;;;;;;6.01;45.89;95352.44;5086129;28;20020;-76
2024/03/21 01:59:03;;;;;;;9.32;6.32;;;;;;;6.00;45.84;95342.69;5069489;28;20059;-76
2024/03/21 02:01:29;;;;;;;9.68;5.90;;;;;;;5.96;45.87;95349.34;5087019;28;20028;-77
2024/03/21 02:03:59;;;;;;;10.02;6.30;;;;;;;5.89;46.20;95346.63;5085601;28;20024;-78
2024/03/21 02:06:26;;;;;;;8.43;5.68;;;;;;;5.74;46.13;95330.34;5086830;28;20031;-76
2024/03/21 02:08:53;;;;;;;8.27;5.32;;;;;;;5.87;46.29;95344.31;5086954;28;20055;-78
2024/03/21 02:11:18;;;;;;;15.45;6.32;;;;;;;5.85;46.26;95343.94;5086037;28;20066;-77
2024/03/21 02:13:44;;;;;;;8.60;6.18;;;;;;;5.84;46.12;95337.66;5087075;28;20107;-77
2024/03/21 02:16:10;;;;;;;8.98;5.78;;;;;;;5.84;46.27;95342.34;5086855;28;20518;-77
2024/03/21 02:18:36;;;;;;;9.48;6.50;;;;;;;5.85;46.23;95333.03;5086381;28;20088;-77
2024/03/21 02:21:04;;;;;;;9.35;6.30;;;;;;;5.80;46.30;95333.44;5085095;28;20028;-77
2024/03/21 02:23:29;;;;;;;9.38;6.13;;;;;;;5.82;46.39;95333.78;5086497;28;20426;-76
2024/03/21 02:25:57;;;;;;;9.65;5.93;;;;;;;5.78;46.37;95327.56;5086541;28;20021;-78
2024/03/21 02:28:23;;;;;;;10.45;6.28;;;;;;;5.74;46.30;95330.34;5069550;28;20031;-75
2024/03/21 02:30:49;;;;;;;10.52;6.32;;;;;;;5.79;46.33;95329.91;5086887;28;20455;-77
2024/03/21 02:33:14;;;;;;;9.88;6.05;;;;;;;5.79;46.41;95331.84;5086947;28;20073;-75
2024/03/21 02:35:40;;;;;;;10.45;5.88;;;;;;;5.69;46.57;95321.78;5085471;28;20125;-76
2024/03/21 02:38:05;;;;;;;9.98;5.97;;;;;;;5.81;46.47;95343.16;5086291;28;20028;-76
2024/03/21 02:40:31;;;;;;;10.00;5.72;;;;;;;5.69;46.42;95330.72;5086167;28;20387;-76
2024/03/21 02:42:56;;;;;;;8.93;6.00;;;;;;;5.66;46.65;95333.47;5084669;28;20062;-77
2024/03/21 02:45:21;;;;;;;10.50;5.90;;;;;;;5.74;46.54;95324.88;5087379;28;20039;-77
2024/03/21 02:47:47;;;;;;;10.73;6.07;;;;;;;5.70;46.34;95336.97;5086292;28;20107;-78
2024/03/21 02:50:12;;;;;;;10.45;5.60;;;;;;;5.69;46.28;95319.81;5086694;28;20128;-77
2024/03/21 02:52:38;;;;;;;9.02;5.57;;;;;;;5.67;46.30;95327.59;5086855;28;20039;-77
2024/03/21 02:55:03;;;;;;;11.43;5.95;;;;;;;5.68;46.11;95317.47;5087093;28;20032;-77
2024/03/21 02:57:29;;;;;;;8.20;5.22;;;;;;;5.62;46.15;95319.84;5087930;28;20020;-77
2024/03/21 02:59:54;;;;;;;10.27;5.57;;;;;;;5.71;46.20;95319.41;5084554;28;20509;-77
2024/03/21 03:02:20;;;;;;;8.57;6.03;;;;;;;5.64;46.23;95322.19;5086174;28;20024;-77
2024/03/21 03:04:45;;;;;;;9.48;5.43;;;;;;;5.66;46.25;95322.56;5085527;28;20028;-76
2024/03/21 03:07:10;;;;;;;11.02;5.85;;;;;;;5.57;46.31;95318.31;5085499;28;20020;-77
2024/03/21 03:09:36;;;;;;;10.95;5.93;;;;;;;5.47;46.51;95313.66;5085718;28;20129;-77
2024/03/21 03:12:02;;;;;;;10.05;6.32;;;;;;;5.51;46.68;95316.38;5084719;28;20456;-76
2024/03/21 03:14:27;;;;;;;9.88;5.47;;;;;;;5.41;46.74;95315.25;5086153;28;20101;-77
2024/03/21 03:16:53;;;;;;;11.25;6.72;;;;;;;5.37;47.07;95313.69;5084071;28;20047;-76
2024/03/21 03:19:18;;;;;;;9.55;5.95;;;;;;;5.36;46.92;95329.28;5068814;28;20024;-76
2024/03/21 03:21:43;;;;;;;10.88;5.85;;;;;;;5.41;47.10;95323.41;5083600;28;20077;-77
2024/03/21 03:24:09;;;;;;;9.55;5.85;;;;;;;5.33;47.56;95324.59;5086608;28;20032;-77
2024/03/21 03:26:34;;;;;;;10.68;6.30;;;;;;;5.22;48.20;95329.31;5084232;28;20411;-76
2024/03/21 03:28:59;;;;;;;11.10;6.50;;;;;;;5.13;48.47;95331.66;5084827;28;20020;-76
2024/03/21 03:31:26;;;;;;;12.88;6.13;;;;;;;5.18;48.13;95336.72;5085893;28;20478;-77
2024/03/21 03:36:35;;;;;;;11.60;7.10;;;;;;;5.18;48.34;95344.91;5085580;28;20067;-76
2024/03/21 03:39:01;;;;;;;11.05;7.85;;;;;;;5.13;48.35;95342.56;5085080;28;20063;-77
2024/03/21 03:41:27;;;;;;;13.20;7.75;;;;;;;5.07;48.07;95339.44;5084865;28;20025;-77
2024/03/21 03:43:52;;;;;;;14.52;7.95;;;;;;;5.03;48.39;95342.16;5085229;28;20104;-75
2024/03/21 03:46:17;;;;;;;12.52;7.68;;;;;;;5.01;48.30;95351.91;5085477;28;20620;-78
2024/03/21 03:48:43;;;;;;;14.82;7.32;;;;;;;4.92;48.38;95349.56;5083523;28;20153;-77
2024/03/21 03:51:08;;;;;;;11.70;6.47;;;;;;;4.88;48.50;95351.53;5083894;28;20028;-77
2024/03/21 03:53:33;;;;;;;12.13;6.80;;;;;;;4.87;48.58;95344.50;5084320;28;20459;-77
2024/03/21 03:55:59;;;;;;;11.30;6.53;;;;;;;4.87;48.64;95349.97;5084643;28;20031;-77
2024/03/21 03:58:24;;;;;;;12.68;7.32;;;;;;;4.72;49.02;95345.69;5068808;28;20090;-76
2024/03/21 04:01:00;;;;;;;10.75;6.40;;;;;;;4.69;49.12;95347.25;5085282;28;20546;-76
2024/03/21 04:03:29;;;;;;;10.23;6.47;;;;;;;4.66;49.09;95353.47;5084190;28;20558;-77
2024/03/21 04:06:02;;;;;;;11.68;6.55;;;;;;;4.67;49.14;95357.75;5085233;28;20051;-77
2024/03/21 04:08:27;;;;;;;9.93;6.22;;;;;;;4.60;49.26;95351.53;5083436;28;20398;-77
2024/03/21 04:10:55;;;;;;;14.02;6.38;;;;;;;4.57;49.55;95355.78;5083947;28;20028;-75
2024/03/21 04:13:20;;;;;;;10.90;6.03;;;;;;;4.60;49.51;95365.16;5083002;28;20039;-76
2024/03/21 04:15:58;;;;;;;9.27;6.05;;;;;;;4.55;49.48;95360.84;5084120;28;20091;-77
2024/03/21 04:18:24;;;;;;;10.20;5.93;;;;;;;4.47;49.38;95342.94;5084718;28;20035;-77
2024/03/21 04:20:53;;;;;;;9.63;6.20;;;;;;;4.51;49.79;95352.69;5083395;28;20028;-77
2024/03/21 04:23:19;;;;;;;10.15;5.85;;;;;;;4.48;49.68;95360.84;5083603;28;20024;-77
2024/03/21 04:25:44;;;;;;;10.80;6.40;;;;;;;4.51;49.88;95360.06;5083004;28;20027;-77
2024/03/21 04:28:09;;;;;;;11.40;5.72;;;;;;;4.52;49.55;95356.16;5084208;28;20513;-76
2024/03/21 04:30:36;;;;;;;11.10;6.47;;;;;;;4.49;49.71;95360.47;5083723;28;20028;-77
2024/03/21 04:33:02;;;;;;;11.93;6.60;;;;;;;4.55;49.50;95360.09;5085807;28;20536;-77
2024/03/21 04:35:27;;;;;;;13.98;6.60;;;;;;;4.53;49.60;95357.75;5084481;28;20028;-77
2024/03/21 04:37:53;;;;;;;15.20;6.32;;;;;;;4.56;49.89;95358.91;5083334;28;20127;-77
2024/03/21 04:40:18;;;;;;;12.02;6.57;;;;;;;4.60;49.70;95355.03;5084581;28;20032;-77
2024/03/21 04:42:43;;;;;;;11.82;7.28;;;;;;;4.58;49.59;95346.44;5066329;28;20088;-78
2024/03/21 04:45:09;;;;;;;13.70;7.85;;;;;;;4.60;49.83;95354.25;5085309;28;20058;-78
2024/03/21 04:47:34;;;;;;;14.65;8.25;;;;;;;4.58;49.79;95362.00;5083925;28;20328;-77
2024/03/21 04:50:00;;;;;;;12.80;8.23;;;;;;;4.62;49.75;95358.13;5084269;28;20398;-76
2024/03/21 04:52:27;;;;;;;18.60;9.55;;;;;;;4.61;49.87;95359.31;5084126;28;20031;-77
2024/03/21 04:54:52;;;;;;;17.73;9.43;;;;;;;4.68;49.72;95361.25;5083528;28;20060;-77
2024/03/21 04:57:18;;;;;;;16.38;9.10;;;;;;;4.67;50.05;95356.97;5083070;28;20066;-78
2024/03/21 04:59:43;;;;;;;12.93;8.82;;;;;;;4.72;49.85;95360.09;5084234;28;20880;-76
2024/03/21 05:02:09;;;;;;;18.50;9.75;;;;;;;4.73;50.27;95360.88;5086100;28;20028;-76
2024/03/21 05:04:35;;;;;;;17.45;9.57;;;;;;;4.64;50.21;95353.06;5087670;28;20048;-76
2024/03/21 05:07:00;;;;;;;19.42;9.75;;;;;;;4.66;50.39;95358.16;5090008;28;20073;-76
2024/03/21 05:09:25;;;;;;;18.52;10.00;;;;;;;4.66;50.52;95366.31;5084895;28;20028;-77
2024/03/21 05:11:51;;;;;;;21.75;10.43;;;;;;;4.70;50.40;95362.44;5089265;28;20480;-76
2024/03/21 05:14:16;;;;;;;13.30;8.40;;;;;;;4.72;50.21;95368.25;5069703;28;20094;-76
2024/03/21 05:16:44;;;;;;;13.25;9.05;;;;;;;4.74;50.07;95360.47;5086961;28;20131;-76
2024/03/21 05:19:11;;;;;;;17.55;9.90;;;;;;;4.74;50.04;95363.19;5087107;28;20031;-76
2024/03/21 05:21:36;;;;;;;21.48;9.65;;;;;;;4.73;50.20;95360.88;5086625;28;20040;-76
2024/03/21 05:24:02;;;;;;;18.15;10.05;;;;;;;4.78;49.80;95357.75;5087329;28;20028;-76
2024/03/21 05:26:27;;;;;;;17.95;9.88;;;;;;;4.81;49.77;95370.59;5087757;28;20116;-77
2024/03/21 05:28:52;;;;;;;23.00;10.70;;;;;;;4.83;49.66;95365.53;5089228;28;20031;-75
2024/03/21 05:31:22;;;;;;;21.75;11.23;;;;;;;4.82;49.72;95361.28;5086283;28;20063;-77
2024/03/21 05:33:48;;;;;;;22.27;10.32;;;;;;;4.90;49.66;95368.25;5088588;28;20677;-75
2024/03/21 05:36:14;;;;;;;18.80;9.70;;;;;;;4.91;49.59;95358.91;5087151;28;20086;-75
2024/03/21 05:38:40;;;;;;;18.80;10.02;;;;;;;4.92;49.77;95354.25;5086465;28;20474;-77
2024/03/21 05:41:06;;;;;;;19.05;10.82;;;;;;;4.97;49.50;95359.31;5069880;28;20046;-75
2024/03/21 05:43:32;;;;;;;21.60;11.15;;;;;;;5.03;49.79;95353.06;5087603;28;20028;-75
2024/03/21 05:45:57;;;;;;;20.77;10.40;;;;;;;5.04;49.70;95346.44;5088576;28;20485;-76
2024/03/21 05:48:22;;;;;;;19.42;9.77;;;;;;;5.18;49.54;95356.56;5085633;28;20536;-75
2024/03/21 05:50:48;;;;;;;21.48;10.43;;;;;;;5.14;49.48;95353.06;5086849;28;20093;-76
2024/03/21 05:53:13;;;;;;;23.70;12.02;;;;;;;5.21;49.60;95353.03;5087526;28;20502;-75
2024/03/21 05:55:39;;;;;;;22.27;11.68;;;;;;;5.23;49.57;95355.41;5086024;28;20024;-76
2024/03/21 05:58:04;;;;;;;19.02;10.60;;;;;;;5.26;49.61;95349.16;5069352;28;20059;-75
2024/03/21 06:00:29;;;;;;;22.73;11.43;;;;;;;5.34;49.58;95353.44;5086048;28;20442;-75
2024/03/21 06:02:55;;;;;;;17.88;10.55;;;;;;;5.38;49.47;95351.47;5086489;28;20140;-75
2024/03/21 06:05:20;;;;;;;20.95;10.43;;;;;;;5.40;49.09;95354.59;5086819;28;20517;-75
2024/03/21 06:07:45;;;;;;;21.48;11.43;;;;;;;5.46;48.98;95363.91;5090603;28;20065;-76
2024/03/21 06:10:11;;;;;;;18.10;11.52;;;;;;;5.50;49.20;95359.22;5094853;28;20067;-75
2024/03/21 06:12:36;;;;;;;16.20;9.77;;;;;;;5.52;49.25;95353.38;5087509;28;20437;-76
2024/03/21 06:15:02;;;;;;;20.95;10.75;;;;;;;5.60;49.19;95361.16;5087221;28;20099;-75
2024/03/21 06:17:27;;;;;;;19.33;9.57;;;;;;;5.68;49.16;95358.38;5085585;28;20655;-75
2024/03/21 06:19:53;;;;;;;25.92;11.52;;;;;;;5.74;49.17;95356.84;5085839;28;20039;-74
2024/03/21 06:22:18;;;;;;;20.98;10.75;;;;;;;5.80;49.02;95357.97;5086962;28;20490;-75
2024/03/21 06:24:44;;;;;;;17.48;10.60;;;;;;;5.79;49.01;95362.66;5087492;28;20043;-75
2024/03/21 06:27:09;;;;;;;22.48;10.63;;;;;;;5.84;49.07;95359.50;5086522;28;20028;-75
2024/03/21 06:29:35;;;;;;;20.50;11.25;;;;;;;5.94;49.05;95360.66;5086640;28;20043;-75
2024/03/21 06:32:00;;;;;;;20.27;10.93;;;;;;;5.97;48.90;95361.84;5068168;28;20032;-75
2024/03/21 06:34:26;;;;;;;16.80;10.55;;;;;;;6.00;48.53;95350.88;5087254;28;20111;-75
2024/03/21 06:36:51;;;;;;;21.85;11.02;;;;;;;6.05;48.52;95355.16;5086839;28;20040;-76
2024/03/21 06:39:19;;;;;;;23.63;10.93;;;;;;;6.16;48.61;95357.84;5086959;28;20028;-77
2024/03/21 06:41:44;;;;;;;20.23;11.63;;;;;;;6.14;48.84;95341.88;5069210;28;20086;-76
2024/03/21 06:44:10;;;;;;;22.58;12.10;;;;;;;6.23;48.73;95357.81;5084943;28;20444;-76
2024/03/21 06:46:38;;;;;;;23.20;10.88;;;;;;;6.30;48.60;95358.53;5086508;28;20172;-75
2024/03/21 06:49:04;;;;;;;20.85;12.00;;;;;;;6.35;48.75;95363.56;5068307;28;20024;-75
2024/03/21 06:51:30;;;;;;;19.08;11.00;;;;;;;6.43;48.81;95364.34;5087260;28;20442;-75
2024/03/21 06:53:55;;;;;;;25.20;12.45;;;;;;;6.51;49.10;95357.63;5086364;28;20081;-76
2024/03/21 06:56:21;;;;;;;27.58;11.57;;;;;;;6.61;49.03;95356.78;5068353;28;20069;-77
2024/03/21 06:58:46;;;;;;;20.88;10.68;;;;;;;6.73;48.61;95358.28;5086615;28;20028;-78
2024/03/21 07:01:11;;;;;;;18.73;10.93;;;;;;;6.77;48.74;95366.47;5086190;28;20485;-76
2024/03/21 07:03:39;;;;;;;28.30;11.98;;;;;;;6.91;48.64;95361.66;5068870;28;20362;-75
2024/03/21 07:06:04;;;;;;;17.55;10.38;;;;;;;6.98;48.56;95351.84;5085868;28;20028;-75
2024/03/21 07:08:29;;;;;;;17.13;9.93;;;;;;;7.09;48.24;95350.56;5085646;28;20085;-75
2024/03/21 07:10:55;;;;;;;18.50;10.02;;;;;;;7.18;48.10;95355.56;5085532;28;20494;-76
2024/03/21 07:13:20;;;;;;;15.80;9.20;;;;;;;7.38;47.97;95355.75;5085009;28;20085;-76
2024/03/21 07:15:46;;;;;;;17.77;9.50;;;;;;;7.47;47.76;95341.63;5085925;28;20035;-75
2024/03/21 07:18:12;;;;;;;17.23;9.40;;;;;;;7.56;47.54;95348.16;5093386;28;20392;-75
2024/03/21 07:20:37;;;;;;;14.32;9.10;;;;;;;7.67;46.79;95339.81;5068202;28;20024;-76
2024/03/21 07:23:03;;;;;;;17.63;8.63;;;;;;;7.80;47.03;95345.53;5083357;28;20405;-75
2024/03/21 07:25:28;;;;;;;18.85;9.60;;;;;;;7.90;47.00;95339.94;5084916;28;20028;-76
2024/03/21 07:27:54;;;;;;;21.52;9.80;;;;;;;8.08;46.15;95345.19;5083864;28;20024;-75
2024/03/21 07:30:19;;;;;;;17.23;8.45;;;;;;;8.28;44.91;95339.09;5086418;28;20024;-76
2024/03/21 07:32:48;;;;;;;22.77;8.13;;;;;;;8.37;44.96;95336.63;5084682;28;20108;-75
2024/03/21 07:35:14;;;;;;;14.13;7.50;;;;;;;8.55;43.92;95326.22;5085791;28;20020;-75
2024/03/21 07:37:40;;;;;;;15.00;7.57;;;;;;;8.70;42.99;95324.03;5084522;28;20031;-75
2024/03/21 07:40:06;;;;;;;12.40;6.22;;;;;;;8.85;41.21;95319.09;5085389;28;20047;-74
2024/03/21 07:42:32;;;;;;;12.52;5.32;;;;;;;8.89;40.67;95317.88;5085261;28;20062;-75
2024/03/21 07:44:57;;;;;;;10.32;5.82;;;;;;;9.04;40.19;95323.88;5083386;28;20039;-76
2024/03/21 07:47:22;;;;;;;7.90;4.93;;;;;;;9.14;40.32;95325.66;5086375;28;20170;-76
2024/03/21 07:49:48;;;;;;;9.27;5.07;;;;;;;9.30;38.96;95320.28;5085259;28;20115;-76
2024/03/21 07:52:14;;;;;;;9.40;5.88;;;;;;;9.44;38.75;95327.47;5085955;28;20161;-77
2024/03/21 07:54:40;;;;;;;8.82;4.47;;;;;;;9.62;38.46;95323.63;5067410;28;20059;-76
2024/03/21 07:57:06;;;;;;;7.50;4.82;;;;;;;9.77;38.21;95328.44;5067117;28;20075;-75
2024/03/21 07:59:32;;;;;;;8.30;5.15;;;;;;;9.91;37.84;95307.38;5084811;28;20462;-75
2024/03/21 08:01:57;;;;;;;9.82;5.25;;;;;;;10.05;37.79;95323.56;5084566;28;20084;-75
2024/03/21 08:04:22;;;;;;;7.88;4.53;;;;;;;10.19;37.09;95317.00;5086282;28;20063;-75
2024/03/21 08:06:48;;;;;;;9.60;5.00;;;;;;;10.31;36.80;95316.38;5084490;28;20103;-75
2024/03/21 08:09:13;;;;;;;5.60;3.67;;;;;;;10.45;36.75;95318.81;5084244;28;20024;-76
2024/03/21 08:11:39;;;;;;;7.43;4.88;;;;;;;10.59;36.25;95306.72;5066613;28;20407;-75
2024/03/21 08:14:04;;;;;;;8.43;5.28;;;;;;;10.76;36.55;95310.25;5084826;28;20031;-75
2024/03/21 08:16:30;;;;;;;10.98;5.63;;;;;;;10.87;36.46;95313.53;5083623;28;20044;-74
2024/03/21 08:18:55;;;;;;;9.13;5.10;;;;;;;11.01;36.07;95310.44;5084416;28;20107;-76
2024/03/21 08:21:21;;;;;;;9.38;5.30;;;;;;;11.21;35.63;95315.06;5085917;28;20065;-76
2024/03/21 08:24:06;;;;;;;11.10;5.40;;;;;;;11.43;35.06;95318.81;5086068;28;20044;-77
2024/03/21 08:26:32;;;;;;;8.00;4.95;;;;;;;11.56;34.81;95313.38;5093434;28;20471;-75
2024/03/21 08:28:57;;;;;;;7.53;4.70;;;;;;;11.81;33.99;95312.69;5085296;28;20327;-77
2024/03/21 08:31:23;;;;;;;8.75;4.68;;;;;;;11.99;33.57;95293.72;5083507;28;20139;-75
2024/03/21 08:33:48;;;;;;;10.27;5.13;;;;;;;12.37;33.20;95302.03;5066719;28;20028;-76
2024/03/21 08:36:14;;;;;;;10.23;5.82;;;;;;;12.66;33.03;95312.22;5084264;28;20553;-76
2024/03/21 08:38:39;;;;;;;9.00;5.13;;;;;;;12.95;32.20;95304.59;5084260;28;20089;-76
2024/03/21 08:41:06;;;;;;;9.77;5.10;;;;;;;13.24;31.82;95298.16;5082361;28;20572;-78
2024/03/21 08:43:32;;;;;;;8.57;5.55;;;;;;;13.58;31.08;95300.16;5083879;28;20039;-77
2024/03/21 08:45:57;;;;;;;5.93;3.92;;;;;;;13.81;30.32;95291.44;5084537;28;20020;-82
2024/03/21 08:48:23;;;;;;;7.22;4.32;;;;;;;14.00;29.98;95292.34;5083464;28;20204;-76
2024/03/21 08:50:48;;;;;;;8.43;4.75;;;;;;;14.35;30.06;95298.56;5083366;28;20085;-79
2024/03/21 08:53:17;;;;;;;8.80;4.25;;;;;;;14.57;29.08;95290.25;5084377;28;20031;-78
2024/03/21 08:55:42;;;;;;;8.57;3.97;;;;;;;14.75;28.87;95286.78;5085276;28;20032;-77
2024/03/21 08:58:08;;;;;;;6.82;4.40;;;;;;;14.81;28.49;95279.44;5083945;28;20184;-77
2024/03/21 09:00:33;;;;;;;7.65;4.57;;;;;;;14.93;28.65;95272.22;5083845;28;20118;-78
2024/03/21 09:02:59;;;;;;;11.38;3.42;;;;;;;15.23;28.56;95269.84;5082763;28;20024;-79
2024/03/21 09:05:25;;;;;;;8.70;4.53;;;;;;;15.50;27.60;95269.88;5084753;28;20024;-79
2024/03/21 09:07:50;;;;;;;8.68;4.50;;;;;;;15.62;27.08;95274.53;5082817;28;20016;-79
2024/03/21 09:10:16;;;;;;;6.72;3.35;;;;;;;15.89;27.19;95257.13;5082374;28;20165;-77
2024/03/21 09:12:42;;;;;;;5.72;3.85;;;;;;;16.23;26.85;95263.53;5084756;28;20024;-80
2024/03/21 09:15:13;;;;;;;6.05;3.30;;;;;;;16.54;26.26;95260.50;5083399;28;20063;-80
2024/03/21 09:17:38;;;;;;;5.93;3.53;;;;;;;16.67;26.14;95252.72;5066894;28;20426;-79
2024/03/21 09:20:04;;;;;;;9.20;3.28;;;;;;;16.91;25.78;95252.78;5083632;28;20041;-77
2024/03/21 09:22:29;;;;;;;6.55;3.55;;;;;;;17.34;25.44;95247.91;5083571;28;20024;-78
2024/03/21 09:24:55;;;;;;;7.47;3.53;;;;;;;17.67;24.78;95244.28;5083840;28;20428;-77
2024/03/21 09:27:20;;;;;;;7.07;3.90;;;;;;;18.06;24.24;95242.25;5082822;28;20110;-78
2024/03/21 09:29:46;;;;;;;6.47;3.60;;;;;;;18.20;23.14;95233.16;5084199;28;20100;-77
2024/03/21 09:32:11;;;;;;;5.35;3.38;;;;;;;18.45;23.80;95247.72;5065706;28;20039;-79
2024/03/21 09:34:37;;;;;;;5.68;2.92;;;;;;;18.81;23.25;95241.75;5085203;28;20069;-78
2024/03/21 09:37:02;;;;;;;6.60;2.88;;;;;;;19.14;22.74;95240.69;5078146;28;20024;-78
2024/03/21 09:39:27;;;;;;;4.72;2.60;;;;;;;19.44;22.30;95237.78;5084141;28;20035;-78
2024/03/21 09:41:53;;;;;;;4.53;3.00;;;;;;;19.75;21.62;95228.81;5083376;28;20133;-78
2024/03/21 09:44:19;;;;;;;3.30;2.58;;;;;;;19.86;21.05;95223.34;5084258;28;20020;-79
2024/03/21 09:46:46;;;;;;;6.13;3.30;;;;;;;20.15;20.88;95230.75;5083006;28;20111;-77
2024/03/21 09:49:13;;;;;;;3.50;2.67;;;;;;;20.63;20.58;95221.78;5086414;28;20024;-78
2024/03/21 09:51:40;;;;;;;4.88;2.53;;;;;;;20.98;20.21;95218.72;5086878;28;20059;-79
2024/03/21 09:54:09;;;;;;;3.58;2.65;;;;;;;21.31;19.72;95220.97;5086825;28;20114;-77
2024/03/21 09:56:34;;;;;;;5.72;3.03;;;;;;;21.52;19.49;95215.97;5087314;28;20028;-78
2024/03/21 09:59:00;;;;;;;4.07;2.65;;;;;;;22.00;18.79;95206.72;5085543;28;20032;-78
2024/03/21 10:01:25;;;;;;;5.32;2.47;;;;;;;22.39;17.94;95206.78;5086646;28;20067;-78
2024/03/21 10:03:55;;;;;;;5.15;2.55;;;;;;;23.07;17.08;95201.16;5086113;28;20020;-79
2024/03/21 10:06:21;;;;;;;3.78;2.20;;;;;;;23.58;16.22;95202.53;5069258;28;20110;-79
2024/03/21 10:08:47;;;;;;;5.05;2.47;;;;;;;24.06;16.03;95190.06;5087985;28;20111;-77
2024/03/21 10:11:12;;;;;;;4.10;2.60;;;;;;;24.74;15.79;95195.97;5068512;28;20119;-78
2024/03/21 10:13:41;;;;;;;5.95;2.35;;;;;;;25.38;15.04;95196.34;5088398;28;20024;-78
2024/03/21 10:16:12;;;;;;;2.97;1.90;;;;;;;26.23;15.03;95181.97;5085065;28;20044;-79
2024/03/21 10:18:41;;;;;;;5.88;1.88;;;;;;;26.61;13.89;95177.81;5086499;28;20264;-75
2024/03/21 10:21:13;;;;;;;5.68;2.20;;;;;;;27.40;13.34;95174.34;5085728;28;20020;-78
2024/03/21 10:23:38;;;;;;;3.70;1.85;;;;;;;27.26;13.54;95175.66;5087174;28;20028;-78
2024/03/21 10:26:04;;;;;;;4.05;2.80;;;;;;;26.85;13.13;95176.13;5087576;28;20034;-78
2024/03/21 10:28:30;;;;;;;3.97;1.73;;;;;;;26.69;12.86;95173.06;5085261;28;20136;-78
2024/03/21 10:30:56;;;;;;;5.13;1.90;;;;;;;26.49;12.86;95170.81;5069596;28;20024;-78
2024/03/21 10:33:22;;;;;;;3.50;2.00;;;;;;;26.43;12.56;95167.31;5068448;28;20031;-78
2024/03/21 10:35:48;;;;;;;3.03;1.85;;;;;;;26.24;12.83;95175.03;5086655;28;20433;-79
2024/03/21 10:38:14;;;;;;;3.28;1.90;;;;;;;25.89;13.03;95171.19;5086646;28;20032;-79
2024/03/21 10:40:46;;;;;;;3.22;1.95;;;;;;;25.22;13.57;95160.72;5085428;28;20183;-77
2024/03/21 10:43:14;;;;;;;3.00;1.95;;;;;;;24.46;13.92;95168.09;5086061;28;20073;-78
2024/03/21 10:45:43;;;;;;;4.55;2.38;;;;;;;23.78;14.47;95154.47;5085284;28;20039;-77
2024/03/21 10:48:35;;;;;;;4.70;3.20;;;;;;;23.81;14.86;95142.22;5087838;28;20032;-84
2024/03/21 10:51:20;;;;;;;6.70;2.22;;;;;;;23.91;14.47;95144.69;5094250;28;20028;-78
2024/03/21 10:54:00;;;;;;;4.38;2.22;;;;;;;23.53;14.48;95138.78;5085251;28;20512;-79
2024/03/21 10:56:31;;;;;;;5.68;2.60;;;;;;;23.73;14.35;95146.09;5086723;28;20111;-82
2024/03/21 10:58:57;;;;;;;4.05;1.50;;;;;;;24.48;13.40;95135.34;5084384;28;20509;-83
2024/03/21 11:01:44;;;;;;;3.17;1.55;;;;;;;23.45;13.98;95141.34;5086481;28;20492;-83
2024/03/21 11:04:14;;;;;;;2.78;1.60;;;;;;;23.50;13.91;95134.94;5086586;28;20130;-83
2024/03/21 11:06:42;;;;;;;3.95;2.00;;;;;;;25.08;13.31;95140.19;5085978;28;20027;-85
2024/03/21 11:09:08;;;;;;;3.92;1.80;;;;;;;26.37;12.99;95130.75;5087593;28;20024;-87
2024/03/21 11:11:34;;;;;;;3.42;1.40;;;;;;;27.33;11.97;95127.00;5087147;28;20551;-86
2024/03/21 11:14:04;;;;;;;3.38;1.77;;;;;;;27.93;11.02;95119.84;5070105;28;20035;-88
2024/03/21 11:16:30;;;;;;;2.53;1.40;;;;;;;28.90;10.72;95123.41;5068377;28;20589;-87
2024/03/21 11:18:56;;;;;;;2.92;1.13;;;;;;;29.23;10.19;95130.28;5086446;28;20099;-89
2024/03/21 11:21:22;;;;;;;3.95;1.20;;;;;;;30.12;9.90;95118.44;5069099;28;20028;-88
2024/03/21 11:23:47;;;;;;;4.00;1.48;;;;;;;30.66;9.62;95113.59;5085944;28;20517;-85
2024/03/21 11:26:18;;;;;;;3.50;1.40;;;;;;;30.52;9.61;95117.19;5085787;28;20024;-88
2024/03/21 11:28:45;;;;;;;3.75;1.70;;;;;;;30.56;9.21;95100.53;5085603;28;20117;-87
2024/03/21 11:31:23;;;;;;;5.63;2.10;;;;;;;29.96;9.61;95097.00;5086139;28;20474;-88
2024/03/21 11:33:50;;;;;;;5.10;2.90;;;;;;;29.08;10.54;95093.41;5085446;28;20028;-87